Border, Minnesota
Current Conditions -  °F | °C
As of 8:53 AM on Friday 28 Nov 2014 (Local Time) from KBDE Reporting Station
Overcast Overcast  
Wind Chill: -7°   Ceiling: 10000
Heat Index:   Visibility: 10mi
Dew Point:   Wind: 8mph
Humidity: 76%   Direction: 100°E
Pressure: 29.98"   Gusts: NA
Location:  48.5595°N, 94.661°W
Report Text: KBDE 281453Z AUTO 10007KT 10SM OVC100 M14/M18 A2998 RMK AO2 SLP182 T11441178 58015 TSNO
Loading
Personal Weather Stations






























Interactive Weather Map New forecast layout! Learn more

10-Day Weather Forecast

Advertisements
Track Severe Weather on mobile